Time,TemperatureF,DewpointF,PressureIn,WindDirection,WindDirectionDegrees,WindSpeedMPH,WindSpeedGustMPH,Humidity,HourlyPrecipIn,Conditions,Clouds,dailyrainin,SoftwareType,DateUTC
2013-04-22 00:02:00,64.0,10.0,29.82,ESE,118,0.0,1.0,12,0.00,,,0.00,,2013-04-22 06:02:00,
2013-04-22 00:12:00,64.0,10.0,29.82,ESE,118,0.0,1.0,12,0.00,,,0.00,,2013-04-22 06:12:00,
2013-04-22 00:21:00,63.0,13.0,29.81,East,96,0.0,5.0,14,0.00,,,0.00,,2013-04-22 06:21:00,
2013-04-22 00:32:00,63.0,15.0,29.82,South,190,0.0,1.0,15,0.00,,,0.00,,2013-04-22 06:32:00,
2013-04-22 00:42:00,63.0,15.0,29.82,South,190,0.0,1.0,15,0.00,,,0.00,,2013-04-22 06:42:00,
2013-04-22 00:52:00,61.0,11.0,29.82,SSE,167,0.0,1.0,14,0.00,,,0.00,,2013-04-22 06:52:00,
2013-04-22 01:01:00,62.0,15.0,29.82,WNW,295,0.0,2.0,16,0.00,,,0.00,,2013-04-22 07:01:00,
2013-04-22 01:12:00,62.0,15.0,29.82,WNW,295,0.0,2.0,16,0.00,,,0.00,,2013-04-22 07:12:00,
2013-04-22 01:21:00,60.0,15.0,29.82,South,191,0.0,1.0,17,0.00,,,0.00,,2013-04-22 07:21:00,
2013-04-22 01:32:00,59.0,13.0,29.82,WSW,243,0.0,0.0,16,0.00,,,0.00,,2013-04-22 07:32:00,
2013-04-22 01:42:00,59.0,13.0,29.82,WSW,243,0.0,0.0,16,0.00,,,0.00,,2013-04-22 07:42:00,
2013-04-22 01:52:00,57.0,13.0,29.82,WSW,243,0.0,0.0,17,0.00,,,0.00,,2013-04-22 07:52:00,
2013-04-22 02:02:00,56.0,16.0,29.82,WSW,243,0.0,0.0,20,0.00,,,0.00,,2013-04-22 08:02:00,
2013-04-22 02:11:00,56.0,16.0,29.82,WSW,243,0.0,0.0,20,0.00,,,0.00,,2013-04-22 08:11:00,
2013-04-22 02:22:00,55.0,18.0,29.82,WSW,243,0.0,0.0,23,0.00,,,0.00,,2013-04-22 08:22:00,
2013-04-22 02:32:00,53.0,21.0,29.82,WSW,243,0.0,0.0,28,0.00,,,0.00,,2013-04-22 08:32:00,
2013-04-22 02:42:00,53.0,21.0,29.82,WSW,243,0.0,0.0,28,0.00,,,0.00,,2013-04-22 08:42:00,
2013-04-22 02:52:00,52.0,15.0,29.82,WSW,243,0.0,0.0,23,0.00,,,0.00,,2013-04-22 08:52:00,
2013-04-22 03:01:00,51.0,16.0,29.82,WSW,243,0.0,0.0,25,0.00,,,0.00,,2013-04-22 09:01:00,
2013-04-22 03:11:00,51.0,16.0,29.82,WSW,243,0.0,0.0,25,0.00,,,0.00,,2013-04-22 09:11:00,
2013-04-22 03:21:00,52.0,17.0,29.82,SSW,201,0.0,2.0,25,0.00,,,0.00,,2013-04-22 09:21:00,
2013-04-22 03:33:00,50.0,22.0,29.82,ESE,112,0.0,1.0,33,0.00,,,0.00,,2013-04-22 09:33:00,
2013-04-22 03:42:00,50.0,22.0,29.82,ESE,112,0.0,1.0,33,0.00,,,0.00,,2013-04-22 09:42:00,
2013-04-22 03:52:00,49.0,20.0,29.82,ESE,111,0.0,0.0,31,0.00,,,0.00,,2013-04-22 09:52:00,
2013-04-22 04:03:00,49.0,19.0,29.83,ESE,111,0.0,0.0,30,0.00,,,0.00,,2013-04-22 10:03:00,
2013-04-22 04:12:00,49.0,19.0,29.83,ESE,111,0.0,0.0,30,0.00,,,0.00,,2013-04-22 10:12:00,
2013-04-22 04:22:00,48.0,17.0,29.83,ESE,112,0.0,0.0,29,0.00,,,0.00,,2013-04-22 10:22:00,
2013-04-22 04:32:00,48.0,16.0,29.83,ESE,111,0.0,0.0,28,0.00,,,0.00,,2013-04-22 10:32:00,
2013-04-22 04:42:00,48.0,16.0,29.83,ESE,111,0.0,0.0,28,0.00,,,0.00,,2013-04-22 10:42:00,
2013-04-22 04:52:00,49.0,17.0,29.83,ESE,115,0.0,1.0,28,0.00,,,0.00,,2013-04-22 10:52:00,
2013-04-22 05:02:00,49.0,15.0,29.83,North,350,0.0,0.0,25,0.00,,,0.00,,2013-04-22 11:02:00,
2013-04-22 05:12:00,49.0,15.0,29.83,North,350,0.0,0.0,25,0.00,,,0.00,,2013-04-22 11:12:00,
2013-04-22 05:22:00,48.0,17.0,29.84,North,350,0.0,0.0,29,0.00,,,0.00,,2013-04-22 11:22:00,
2013-04-22 05:32:00,46.0,19.0,29.85,North,350,0.0,0.0,33,0.00,,,0.00,,2013-04-22 11:32:00,
2013-04-22 05:42:00,46.0,19.0,29.85,North,350,0.0,0.0,33,0.00,,,0.00,,2013-04-22 11:42:00,
2013-04-22 05:52:00,45.0,19.0,29.85,North,350,0.0,0.0,35,0.00,,,0.00,,2013-04-22 11:52:00,
2013-04-22 06:02:00,45.0,19.0,29.85,North,350,0.0,0.0,35,0.00,,,0.00,,2013-04-22 12:02:00,
2013-04-22 06:12:00,45.0,19.0,29.85,North,350,0.0,0.0,35,0.00,,,0.00,,2013-04-22 12:12:00,
2013-04-22 06:21:00,44.0,20.0,29.85,North,350,0.0,1.0,38,0.00,,,0.00,,2013-04-22 12:21:00,
2013-04-22 06:32:00,44.0,21.0,29.85,North,350,0.0,0.0,40,0.00,,,0.00,,2013-04-22 12:32:00,
2013-04-22 06:42:00,44.0,21.0,29.85,North,350,0.0,0.0,40,0.00,,,0.00,,2013-04-22 12:42:00,
2013-04-22 06:52:00,44.0,21.0,29.85,North,350,0.0,0.0,39,0.00,,,0.00,,2013-04-22 12:52:00,
2013-04-22 07:01:00,44.0,20.0,29.86,North,352,0.0,0.0,38,0.00,,,0.00,,2013-04-22 13:01:00,
2013-04-22 07:11:00,44.0,20.0,29.86,North,352,0.0,0.0,38,0.00,,,0.00,,2013-04-22 13:11:00,
2013-04-22 07:22:00,43.0,21.0,29.87,NE,53,0.0,0.0,41,0.00,,,0.00,,2013-04-22 13:22:00,
2013-04-22 07:32:00,44.0,23.0,29.88,NE,53,0.0,0.0,44,0.00,,,0.00,,2013-04-22 13:32:00,
2013-04-22 07:42:00,44.0,23.0,29.88,NE,53,0.0,0.0,44,0.00,,,0.00,,2013-04-22 13:42:00,
2013-04-22 07:52:00,44.0,19.0,29.89,NE,52,0.0,0.0,37,0.00,,,0.00,,2013-04-22 13:52:00,
2013-04-22 08:02:00,47.0,19.0,29.89,NNE,15,0.0,1.0,32,0.00,,,0.00,,2013-04-22 14:02:00,
2013-04-22 08:11:00,47.0,19.0,29.89,NNE,15,0.0,1.0,32,0.00,,,0.00,,2013-04-22 14:11:00,
2013-04-22 08:21:00,49.0,20.0,29.90,North,360,0.0,0.0,32,0.00,,,0.00,,2013-04-22 14:21:00,
2013-04-22 08:33:00,51.0,21.0,29.90,North,359,0.0,1.0,30,0.00,,,0.00,,2013-04-22 14:33:00,
2013-04-22 08:42:00,51.0,21.0,29.90,North,359,0.0,1.0,30,0.00,,,0.00,,2013-04-22 14:42:00,
2013-04-22 08:52:00,53.0,17.0,29.90,NNW,331,0.0,1.0,24,0.00,,,0.00,,2013-04-22 14:52:00,
2013-04-22 09:02:00,56.0,16.0,29.91,NE,52,0.0,1.0,20,0.00,,,0.00,,2013-04-22 15:02:00,
2013-04-22 09:12:00,56.0,16.0,29.91,NE,52,0.0,1.0,20,0.00,,,0.00,,2013-04-22 15:12:00,
2013-04-22 09:22:00,59.0,16.0,29.90,NNE,20,0.0,2.0,18,0.00,,,0.00,,2013-04-22 15:22:00,
2013-04-22 09:33:00,61.0,16.0,29.90,South,169,0.0,2.0,17,0.00,,,0.00,,2013-04-22 15:33:00,
2013-04-22 09:43:00,61.0,16.0,29.90,South,169,0.0,2.0,17,0.00,,,0.00,,2013-04-22 15:43:00,
2013-04-22 09:53:00,64.0,15.0,29.90,SSW,208,0.0,2.0,15,0.00,,,0.00,,2013-04-22 15:53:00,
2013-04-22 10:02:00,65.0,16.0,29.89,North,352,0.0,1.0,15,0.00,,,0.00,,2013-04-22 16:02:00,
2013-04-22 10:12:00,65.0,16.0,29.89,North,352,0.0,1.0,15,0.00,,,0.00,,2013-04-22 16:12:00,
2013-04-22 10:23:00,68.0,17.0,29.88,North,4,0.0,2.0,14,0.00,,,0.00,,2013-04-22 16:23:00,
2013-04-22 10:33:00,70.0,15.0,29.88,WSW,251,0.0,1.0,12,0.00,,,0.00,,2013-04-22 16:33:00,
2013-04-22 10:42:00,70.0,15.0,29.88,WSW,251,0.0,1.0,12,0.00,,,0.00,,2013-04-22 16:42:00,
2013-04-22 10:52:00,72.0,17.0,29.88,North,350,0.0,2.0,12,0.00,,,0.00,,2013-04-22 16:52:00,
2013-04-22 11:02:00,75.0,12.0,29.88,ENE,74,0.0,3.0,9,0.00,,,0.00,,2013-04-22 17:02:00,
2013-04-22 11:12:00,75.0,12.0,29.88,ENE,74,0.0,3.0,9,0.00,,,0.00,,2013-04-22 17:12:00,
2013-04-22 11:22:00,78.0,19.0,29.87,ESE,113,0.0,3.0,11,0.00,,,0.00,,2013-04-22 17:22:00,
2013-04-22 11:32:00,78.0,15.0,29.86,ESE,106,0.0,3.0,9,0.00,,,0.00,,2013-04-22 17:32:00,
2013-04-22 11:42:00,78.0,15.0,29.86,ESE,106,0.0,3.0,9,0.00,,,0.00,,2013-04-22 17:42:00,
2013-04-22 11:52:00,81.0,14.0,29.85,East,90,0.0,4.0,8,0.00,,,0.00,,2013-04-22 17:52:00,
2013-04-22 12:01:00,82.0,12.0,29.83,East,96,2.0,4.0,7,0.00,,,0.00,,2013-04-22 18:01:00,
2013-04-22 12:12:00,82.0,12.0,29.83,East,96,2.0,4.0,7,0.00,,,0.00,,2013-04-22 18:12:00,
2013-04-22 12:21:00,82.0,12.0,29.83,ESE,111,0.0,4.0,7,0.00,,,0.00,,2013-04-22 18:21:00,
2013-04-22 12:32:00,83.0,18.0,29.81,SSW,205,0.0,3.0,9,0.00,,,0.00,,2013-04-22 18:32:00,
2013-04-22 12:42:00,83.0,18.0,29.81,SSW,205,0.0,3.0,9,0.00,,,0.00,,2013-04-22 18:42:00,
2013-04-22 12:52:00,85.0,7.0,29.80,West,281,3.0,9.0,5,0.00,,,0.00,,2013-04-22 18:52:00,
2013-04-22 13:01:00,86.0,18.0,29.79,West,263,3.0,7.0,8,0.00,,,0.00,,2013-04-22 19:01:00,
2013-04-22 13:12:00,86.0,18.0,29.79,West,263,3.0,7.0,8,0.00,,,0.00,,2013-04-22 19:12:00,
2013-04-22 13:22:00,87.0,19.0,29.78,SE,132,3.0,8.0,8,0.00,,,0.00,,2013-04-22 19:22:00,
2013-04-22 13:32:00,86.0,11.0,29.76,SW,226,4.0,13.0,6,0.00,,,0.00,,2013-04-22 19:32:00,
2013-04-22 13:42:00,86.0,11.0,29.76,SW,226,4.0,13.0,6,0.00,,,0.00,,2013-04-22 19:42:00,
2013-04-22 13:52:00,87.0,3.0,29.76,SW,225,3.0,9.0,4,0.00,,,0.00,,2013-04-22 19:52:00,
2013-04-22 14:02:00,88.0,4.0,29.75,WSW,243,2.0,8.0,4,0.00,,,0.00,,2013-04-22 20:02:00,
2013-04-22 14:11:00,88.0,4.0,29.75,WSW,243,2.0,8.0,4,0.00,,,0.00,,2013-04-22 20:11:00,
2013-04-22 14:22:00,88.0,-2.0,29.74,West,269,3.0,8.0,3,0.00,,,0.00,,2013-04-22 20:22:00,
2013-04-22 14:32:00,88.0,-2.0,29.73,WSW,255,3.0,9.0,3,0.00,,,0.00,,2013-04-22 20:32:00,
2013-04-22 14:42:00,88.0,-2.0,29.73,WSW,255,3.0,9.0,3,0.00,,,0.00,,2013-04-22 20:42:00,
2013-04-22 14:52:00,89.0,4.0,29.72,West,260,2.0,7.0,4,0.00,,,0.00,,2013-04-22 20:52:00,
2013-04-22 15:02:00,89.0,-2.0,29.71,SSW,203,4.0,8.0,3,0.00,,,0.00,,2013-04-22 21:02:00,
2013-04-22 15:11:00,89.0,-2.0,29.71,SSW,203,4.0,8.0,3,0.00,,,0.00,,2013-04-22 21:11:00,
2013-04-22 15:21:00,89.0,-2.0,29.70,WSW,249,3.0,9.0,3,0.00,,,0.00,,2013-04-22 21:21:00,
2013-04-22 15:32:00,89.0,13.0,29.70,WSW,238,6.0,12.0,6,0.00,,,0.00,,2013-04-22 21:32:00,
2013-04-22 15:42:00,89.0,13.0,29.70,WSW,238,6.0,12.0,6,0.00,,,0.00,,2013-04-22 21:42:00,
2013-04-22 15:53:00,88.0,-2.0,29.69,SW,233,3.0,12.0,3,0.00,,,0.00,,2013-04-22 21:53:00,
2013-04-22 16:03:00,88.0,13.0,29.68,WSW,252,5.0,12.0,6,0.00,,,0.00,,2013-04-22 22:03:00,
2013-04-22 16:12:00,88.0,13.0,29.68,WSW,252,5.0,12.0,6,0.00,,,0.00,,2013-04-22 22:12:00,
2013-04-22 16:22:00,88.0,-2.0,29.67,SSW,210,4.0,10.0,3,0.00,,,0.00,,2013-04-22 22:22:00,
2013-04-22 16:33:00,89.0,-2.0,29.66,SSW,211,5.0,9.0,3,0.00,,,0.00,,2013-04-22 22:33:00,
2013-04-22 16:42:00,89.0,-2.0,29.66,SSW,211,5.0,9.0,3,0.00,,,0.00,,2013-04-22 22:42:00,
2013-04-22 16:52:00,89.0,-2.0,29.65,WNW,300,4.0,10.0,3,0.00,,,0.00,,2013-04-22 22:52:00,
2013-04-22 17:02:00,88.0,-2.0,29.65,East,95,1.0,10.0,3,0.00,,,0.00,,2013-04-22 23:02:00,
2013-04-22 17:11:00,88.0,-2.0,29.65,East,95,1.0,10.0,3,0.00,,,0.00,,2013-04-22 23:11:00,
2013-04-22 17:21:00,88.0,-2.0,29.64,West,278,4.0,8.0,3,0.00,,,0.00,,2013-04-22 23:21:00,
2013-04-22 17:33:00,87.0,-3.0,29.64,West,260,4.0,11.0,3,0.00,,,0.00,,2013-04-22 23:33:00,
2013-04-22 17:42:00,87.0,-3.0,29.64,West,260,4.0,11.0,3,0.00,,,0.00,,2013-04-22 23:42:00,
2013-04-22 17:52:00,88.0,-2.0,29.64,NNW,331,3.0,9.0,3,0.00,,,0.00,,2013-04-22 23:52:00,
2013-04-22 18:02:00,87.0,-3.0,29.64,SE,127,2.0,7.0,3,0.00,,,0.00,,2013-04-23 00:02:00,
2013-04-22 18:12:00,87.0,-3.0,29.64,SE,127,2.0,7.0,3,0.00,,,0.00,,2013-04-23 00:12:00,
2013-04-22 18:21:00,86.0,-4.0,29.63,West,263,3.0,8.0,3,0.00,,,0.00,,2013-04-23 00:21:00,
2013-04-22 18:32:00,85.0,-4.0,29.64,WSW,255,6.0,10.0,3,0.00,,,0.00,,2013-04-23 00:32:00,
2013-04-22 18:42:00,85.0,-4.0,29.64,WSW,255,6.0,10.0,3,0.00,,,0.00,,2013-04-23 00:42:00,
2013-04-22 18:52:00,84.0,-5.0,29.63,WSW,252,3.0,10.0,3,0.00,,,0.00,,2013-04-23 00:52:00,
2013-04-22 19:01:00,83.0,0.0,29.63,SSW,210,3.0,9.0,4,0.00,,,0.00,,2013-04-23 01:01:00,
2013-04-22 19:11:00,83.0,0.0,29.63,SSW,210,3.0,9.0,4,0.00,,,0.00,,2013-04-23 01:11:00,
2013-04-22 19:21:00,83.0,0.0,29.63,WSW,253,2.0,7.0,4,0.00,,,0.00,,2013-04-23 01:21:00,
2013-04-22 19:32:00,82.0,0.0,29.63,South,184,2.0,7.0,4,0.00,,,0.00,,2013-04-23 01:32:00,
2013-04-22 19:42:00,82.0,0.0,29.63,South,184,2.0,7.0,4,0.00,,,0.00,,2013-04-23 01:42:00,
2013-04-22 19:52:00,81.0,4.0,29.64,NW,311,1.0,7.0,5,0.00,,,0.00,,2013-04-23 01:52:00,
2013-04-22 20:01:00,80.0,3.0,29.64,West,266,1.0,4.0,5,0.00,,,0.00,,2013-04-23 02:01:00,
2013-04-22 20:12:00,80.0,3.0,29.64,West,266,1.0,4.0,5,0.00,,,0.00,,2013-04-23 02:12:00,
2013-04-22 20:21:00,77.0,5.0,29.64,WSW,246,0.0,2.0,6,0.00,,,0.00,,2013-04-23 02:21:00,
2013-04-22 20:32:00,75.0,7.0,29.64,WSW,246,0.0,0.0,7,0.00,,,0.00,,2013-04-23 02:32:00,
2013-04-22 20:42:00,75.0,7.0,29.64,WSW,246,0.0,0.0,7,0.00,,,0.00,,2013-04-23 02:42:00,
2013-04-22 20:52:00,73.0,8.0,29.65,WSW,246,0.0,1.0,8,0.00,,,0.00,,2013-04-23 02:52:00,
2013-04-22 21:01:00,71.0,7.0,29.65,WSW,253,0.0,0.0,8,0.00,,,0.00,,2013-04-23 03:01:00,
2013-04-22 21:11:00,71.0,7.0,29.65,WSW,253,0.0,0.0,8,0.00,,,0.00,,2013-04-23 03:11:00,
2013-04-22 21:21:00,71.0,7.0,29.65,NNW,347,0.0,1.0,8,0.00,,,0.00,,2013-04-23 03:21:00,
2013-04-22 21:33:00,71.0,9.0,29.65,West,263,0.0,1.0,9,0.00,,,0.00,,2013-04-23 03:33:00,
2013-04-22 21:43:00,71.0,9.0,29.65,West,263,0.0,1.0,9,0.00,,,0.00,,2013-04-23 03:43:00,
2013-04-22 21:53:00,70.0,9.0,29.66,West,260,0.0,0.0,9,0.00,,,0.00,,2013-04-23 03:53:00,
2013-04-22 22:03:00,68.0,15.0,29.66,West,264,0.0,0.0,13,0.00,,,0.00,,2013-04-23 04:03:00,
2013-04-22 22:12:00,68.0,15.0,29.66,West,264,0.0,0.0,13,0.00,,,0.00,,2013-04-23 04:12:00,
2013-04-22 22:23:00,66.0,12.0,29.67,West,264,0.0,0.0,12,0.00,,,0.00,,2013-04-23 04:23:00,
2013-04-22 22:33:00,64.0,15.0,29.67,West,264,0.0,0.0,15,0.00,,,0.00,,2013-04-23 04:33:00,
2013-04-22 22:43:00,64.0,15.0,29.67,West,264,0.0,0.0,15,0.00,,,0.00,,2013-04-23 04:43:00,
2013-04-22 22:53:00,63.0,13.0,29.68,West,264,0.0,0.0,14,0.00,,,0.00,,2013-04-23 04:53:00,
2013-04-22 23:02:00,63.0,11.0,29.68,West,259,0.0,0.0,13,0.00,,,0.00,,2013-04-23 05:02:00,
2013-04-22 23:12:00,63.0,11.0,29.68,West,259,0.0,0.0,13,0.00,,,0.00,,2013-04-23 05:12:00,
2013-04-22 23:22:00,63.0,18.0,29.68,SW,229,0.0,1.0,17,0.00,,,0.00,,2013-04-23 05:22:00,
2013-04-22 23:32:00,62.0,17.0,29.68,SW,228,0.0,1.0,17,0.00,,,0.00,,2013-04-23 05:32:00,
2013-04-22 23:42:00,62.0,17.0,29.68,SW,228,0.0,1.0,17,0.00,,,0.00,,2013-04-23 05:42:00,
2013-04-22 23:52:00,62.0,14.0,29.68,SW,228,0.0,0.0,15,0.00,,,0.00,,2013-04-23 05:52:00,